createdAt,value
2023-01-22T00:01:25.636Z,99615.34
2023-01-22T00:03:55.602Z,99616.13
2023-01-22T00:06:24.608Z,99623.97
2023-01-22T00:08:53.496Z,99624.28
2023-01-22T00:11:22.100Z,99624.63
2023-01-22T00:13:50.457Z,99626.88
2023-01-22T00:16:19.506Z,99629.19
2023-01-22T00:18:47.991Z,99637.38
2023-01-22T00:21:16.340Z,99643.91
2023-01-22T00:23:44.612Z,99652.41
2023-01-22T00:26:18.389Z,99648.34
2023-01-22T00:28:46.708Z,99649.78
2023-01-22T00:31:17.439Z,99655.56
2023-01-22T00:33:47.275Z,99654.25
2023-01-22T00:36:18.987Z,99648.94
2023-01-22T00:38:47.685Z,99660.22
2023-01-22T00:41:17.546Z,99659.28
2023-01-22T00:43:46.057Z,99669.69
2023-01-22T00:46:16.999Z,99678.19
2023-01-22T00:48:50.611Z,99674.00
2023-01-22T00:51:19.173Z,99680.09
2023-01-22T00:53:47.705Z,99683.41
2023-01-22T00:56:16.433Z,99683.19
2023-01-22T00:58:44.881Z,99686.50
2023-01-22T01:01:15.456Z,99686.63
2023-01-22T01:03:44.079Z,99689.94
2023-01-22T01:06:20.701Z,99695.56
2023-01-22T01:08:50.605Z,99694.91
2023-01-22T01:11:27.014Z,99702.53
2023-01-22T01:13:55.552Z,99707.72
2023-01-22T01:16:32.328Z,99704.63
2023-01-22T01:19:07.016Z,99709.34
2023-01-22T01:21:36.601Z,99709.88
2023-01-22T01:24:05.221Z,99720.25
2023-01-22T01:26:35.696Z,99720.31
2023-01-22T01:29:05.782Z,99726.28
2023-01-22T01:31:34.144Z,99726.34
2023-01-22T01:34:02.542Z,99726.41
2023-01-22T01:36:47.619Z,99727.59
2023-01-22T01:39:16.984Z,99733.06
2023-01-22T01:41:45.294Z,99736.25
2023-01-22T01:44:16.813Z,99743.38
2023-01-22T01:46:55.209Z,99742.97
2023-01-22T01:49:31.300Z,99746.56
2023-01-22T01:52:03.106Z,99754.16
2023-01-22T01:54:32.608Z,99752.63
2023-01-22T01:57:10.400Z,99751.94
2023-01-22T01:59:40.380Z,99754.72
2023-01-22T02:02:12.430Z,99752.75
2023-01-22T02:04:40.777Z,99749.13
2023-01-22T02:07:09.249Z,99747.91
2023-01-22T02:09:37.725Z,99753.78
2023-01-22T02:12:06.337Z,99748.56
2023-01-22T02:14:38.772Z,99749.19
2023-01-22T02:17:13.681Z,99754.63
2023-01-22T02:19:42.863Z,99750.13
2023-01-22T02:22:25.105Z,99758.31
2023-01-22T02:24:53.432Z,99751.84
2023-01-22T02:27:22.057Z,99746.91
2023-01-22T02:29:51.083Z,99742.38
2023-01-22T02:32:19.487Z,99756.56
2023-01-22T02:34:47.782Z,99753.31
2023-01-22T02:37:16.088Z,99749.53
2023-01-22T02:39:44.459Z,99747.53
2023-01-22T02:42:12.884Z,99746.56
2023-01-22T02:44:41.177Z,99744.81
2023-01-22T02:47:09.511Z,99746.41
2023-01-22T02:49:37.882Z,99741.41
2023-01-22T02:52:06.190Z,99741.91
2023-01-22T02:54:34.493Z,99742.94
2023-01-22T02:57:02.888Z,99745.66
2023-01-22T02:59:31.237Z,99736.75
2023-01-22T03:01:59.641Z,99736.22
2023-01-22T03:04:29.753Z,99731.91
2023-01-22T03:06:58.098Z,99735.69
2023-01-22T03:09:26.384Z,99731.06
2023-01-22T03:11:54.687Z,99731.25
2023-01-22T03:14:41.291Z,99729.44
2023-01-22T03:17:28.566Z,99724.53
2023-01-22T03:20:15.182Z,99728.28
2023-01-22T03:22:43.664Z,99723.84
2023-01-22T03:25:12.048Z,99726.78
2023-01-22T03:28:03.007Z,99715.50
2023-01-22T03:30:31.333Z,99716.91
2023-01-22T03:32:59.605Z,99722.09
2023-01-22T03:35:27.896Z,99713.31
2023-01-22T03:37:56.215Z,99716.19
2023-01-22T03:40:24.479Z,99706.91
2023-01-22T03:42:54.458Z,99702.72
2023-01-22T03:45:22.771Z,99700.81
2023-01-22T03:47:52.240Z,99696.41
2023-01-22T03:50:20.576Z,99684.31
2023-01-22T03:52:48.858Z,99679.31
2023-01-22T03:55:17.871Z,99681.16
2023-01-22T03:57:46.208Z,99674.69
2023-01-22T04:00:15.101Z,99679.59
2023-01-22T04:02:43.502Z,99663.66
2023-01-22T04:05:11.836Z,99657.63
2023-01-22T04:07:40.131Z,99656.69
2023-01-22T04:10:09.243Z,99652.66
2023-01-22T04:12:37.500Z,99656.53
2023-01-22T04:15:06.252Z,99643.34
2023-01-22T04:17:34.537Z,99643.63
2023-01-22T04:20:02.939Z,99642.91
2023-01-22T04:22:31.224Z,99639.16
2023-01-22T04:24:59.510Z,99628.25
2023-01-22T04:27:27.843Z,99622.16
2023-01-22T04:29:56.122Z,99621.41
2023-01-22T04:32:24.442Z,99609.00
2023-01-22T04:34:52.765Z,99612.06
2023-01-22T04:37:21.049Z,99594.75
2023-01-22T04:39:49.356Z,99599.88
2023-01-22T04:42:17.642Z,99589.44
2023-01-22T04:44:45.922Z,99585.41
2023-01-22T04:47:14.236Z,99586.19
2023-01-22T04:49:42.609Z,99579.56
2023-01-22T04:52:10.922Z,99572.97
2023-01-22T04:54:39.238Z,99563.78
2023-01-22T04:57:07.696Z,99553.56
2023-01-22T04:59:36.052Z,99559.44
2023-01-22T05:02:05.066Z,99547.19
2023-01-22T05:04:33.373Z,99538.53
2023-01-22T05:07:01.716Z,99527.81
2023-01-22T05:09:30.001Z,99515.78
2023-01-22T05:11:58.275Z,99517.78
2023-01-22T05:14:26.677Z,99513.94
2023-01-22T05:16:54.961Z,99504.22
2023-01-22T05:19:23.365Z,99499.56
2023-01-22T05:21:51.783Z,99492.38
2023-01-22T05:24:20.084Z,99484.72
2023-01-22T05:26:48.369Z,99470.13
2023-01-22T05:29:16.682Z,99466.75
2023-01-22T05:31:45.083Z,99455.72
2023-01-22T05:34:13.403Z,99453.63
2023-01-22T05:36:41.724Z,99445.91
2023-01-22T05:39:10.062Z,99438.69
2023-01-22T05:41:38.522Z,99434.03
2023-01-22T05:44:07.536Z,99435.28
2023-01-22T05:46:35.832Z,99426.03
2023-01-22T05:49:04.299Z,99423.41
2023-01-22T05:51:32.978Z,99412.91
2023-01-22T05:54:01.682Z,99404.09
2023-01-22T05:56:30.103Z,99398.66
2023-01-22T05:58:58.738Z,99392.41
2023-01-22T06:01:27.413Z,99388.03
2023-01-22T06:03:55.713Z,99378.78
2023-01-22T06:06:24.151Z,99379.22
2023-01-22T06:08:53.728Z,99378.19
2023-01-22T06:11:22.155Z,99362.81
2023-01-22T06:13:50.545Z,99369.44
2023-01-22T06:16:18.965Z,99357.13
2023-01-22T06:18:47.277Z,99348.69
2023-01-22T06:21:15.571Z,99353.25
2023-01-22T06:23:43.875Z,99335.84
2023-01-22T06:26:12.172Z,99335.25
2023-01-22T06:28:40.456Z,99329.75
2023-01-22T06:31:08.838Z,99320.91
2023-01-22T06:33:39.053Z,99309.81
2023-01-22T06:36:07.935Z,99307.38
2023-01-22T06:38:37.402Z,99305.97
2023-01-22T06:41:06.070Z,99294.88
2023-01-22T06:43:34.459Z,99289.72
2023-01-22T06:46:05.295Z,99291.00
2023-01-22T06:48:33.902Z,99289.72
2023-01-22T06:51:02.908Z,99276.59
2023-01-22T06:53:31.224Z,99283.00
2023-01-22T06:56:03.299Z,99272.16
2023-01-22T06:58:32.034Z,99262.63
2023-01-22T07:01:04.196Z,99266.09
2023-01-22T07:03:32.892Z,99259.38
2023-01-22T07:06:03.709Z,99249.41
2023-01-22T07:08:33.990Z,99247.56
2023-01-22T07:11:02.815Z,99252.16
2023-01-22T07:13:31.269Z,99247.72
2023-01-22T07:16:04.614Z,99241.75
2023-01-22T07:18:33.248Z,99230.47
2023-01-22T07:21:03.336Z,99235.56
2023-01-22T07:23:31.997Z,99237.31
2023-01-22T07:26:00.706Z,99231.88
2023-01-22T07:28:29.117Z,99233.41
2023-01-22T07:30:58.129Z,99226.78
2023-01-22T07:33:26.593Z,99226.03
2023-01-22T07:35:57.436Z,99220.41
2023-01-22T07:38:28.773Z,99228.53
2023-01-22T07:41:13.931Z,99217.69
2023-01-22T07:43:53.554Z,99219.63
2023-01-22T07:46:22.067Z,99207.28
2023-01-22T07:48:50.364Z,99210.88
2023-01-22T07:51:18.805Z,99209.47
2023-01-22T07:53:47.365Z,99204.25
2023-01-22T07:56:15.681Z,99211.63
2023-01-22T07:58:43.989Z,99204.16
2023-01-22T08:01:12.502Z,99202.84
2023-01-22T08:03:41.001Z,99202.09
2023-01-22T08:06:14.238Z,99206.41
2023-01-22T08:08:43.562Z,99199.47
2023-01-22T08:11:11.840Z,99199.69
2023-01-22T08:13:40.343Z,99194.25
2023-01-22T08:16:10.352Z,99192.19
2023-01-22T08:18:39.310Z,99184.72
2023-01-22T08:21:07.896Z,99190.59
2023-01-22T08:23:36.418Z,99186.25
2023-01-22T08:26:05.502Z,99172.16
2023-01-22T08:28:33.870Z,99173.13
2023-01-22T08:31:04.288Z,99171.59
2023-01-22T08:33:34.629Z,99169.13
2023-01-22T08:36:02.972Z,99166.81
2023-01-22T08:38:31.360Z,99172.44
2023-01-22T08:40:59.666Z,99162.72
2023-01-22T08:43:28.018Z,99154.47
2023-01-22T08:45:56.393Z,99155.44
2023-01-22T08:48:24.720Z,99154.34
2023-01-22T08:50:53.045Z,99155.09
2023-01-22T08:53:21.355Z,99151.16
2023-01-22T08:55:52.844Z,99147.81
2023-01-22T08:58:23.069Z,99148.56
2023-01-22T09:00:51.404Z,99152.13
2023-01-22T09:03:19.780Z,99152.47
2023-01-22T09:05:48.458Z,99150.63
2023-01-22T09:08:16.771Z,99150.41
2023-01-22T09:10:45.938Z,99151.72
2023-01-22T09:13:14.269Z,99145.09
2023-01-22T09:15:42.681Z,99150.53
2023-01-22T09:18:11.471Z,99146.00
2023-01-22T09:20:39.741Z,99151.44
2023-01-22T09:23:08.417Z,99150.44
2023-01-22T09:25:37.133Z,99150.00
2023-01-22T09:28:08.139Z,99149.59
2023-01-22T09:30:40.284Z,99157.06
2023-01-22T09:33:08.712Z,99150.78
2023-01-22T09:35:37.010Z,99149.81
2023-01-22T09:38:06.666Z,99148.84
2023-01-22T09:40:52.318Z,99151.44
2023-01-22T09:43:29.738Z,99148.72
2023-01-22T09:46:01.770Z,99155.75
2023-01-22T09:48:44.897Z,99156.22
2023-01-22T09:51:18.104Z,99154.34
2023-01-22T09:53:54.267Z,99154.03
2023-01-22T09:56:27.321Z,99152.41
2023-01-22T09:58:57.615Z,99152.00
2023-01-22T10:01:27.799Z,99152.22
2023-01-22T10:04:04.185Z,99160.34
2023-01-22T10:06:32.704Z,99153.34
2023-01-22T10:09:20.583Z,99160.69
2023-01-22T10:11:55.222Z,99161.38
2023-01-22T10:14:27.875Z,99166.41
2023-01-22T10:16:59.884Z,99173.72
2023-01-22T10:19:39.748Z,99173.88
2023-01-22T10:22:15.376Z,99166.91
2023-01-22T10:24:43.634Z,99167.78
2023-01-22T10:27:17.336Z,99168.66
2023-01-22T10:30:03.337Z,99173.66
2023-01-22T10:32:33.244Z,99176.06
2023-01-22T10:35:02.992Z,99179.78
2023-01-22T10:37:31.999Z,99178.38
2023-01-22T10:40:01.479Z,99177.22
2023-01-22T10:42:30.913Z,99180.06
2023-01-22T10:45:12.616Z,99185.81
2023-01-22T10:47:40.921Z,99188.72
2023-01-22T10:50:19.007Z,99183.47
2023-01-22T10:52:56.115Z,99196.63
2023-01-22T10:55:32.286Z,99187.22
2023-01-22T10:58:06.523Z,99192.16
2023-01-22T11:00:51.207Z,99194.25
2023-01-22T11:03:40.463Z,99199.94
2023-01-22T11:06:25.588Z,99204.06
2023-01-22T11:09:02.901Z,99205.41
2023-01-22T11:11:39.367Z,99205.16
2023-01-22T11:14:24.633Z,99203.44
2023-01-22T11:16:55.293Z,99202.72
2023-01-22T11:19:37.240Z,99204.53
2023-01-22T11:22:16.065Z,99209.38
2023-01-22T11:24:48.226Z,99212.69
2023-01-22T11:27:27.038Z,99215.47
2023-01-22T11:30:15.972Z,99221.59
2023-01-22T11:32:57.932Z,99222.34
2023-01-22T11:35:35.078Z,99231.50
2023-01-22T11:38:15.183Z,99242.16
2023-01-22T11:40:55.728Z,99241.63
2023-01-22T11:43:56.629Z,99239.28
2023-01-22T11:47:05.877Z,99248.16
2023-01-22T11:49:40.179Z,99258.50
2023-01-22T11:52:23.376Z,99253.91
2023-01-22T11:55:02.495Z,99260.47
2023-01-22T11:57:52.462Z,99258.88
2023-01-22T12:00:29.026Z,99263.41
2023-01-22T12:03:26.199Z,99270.75
2023-01-22T12:06:14.061Z,99271.66
2023-01-22T12:09:07.408Z,99267.81
2023-01-22T12:11:53.718Z,99277.41
2023-01-22T12:14:30.029Z,99284.72
2023-01-22T12:17:39.510Z,99289.97
2023-01-22T12:20:32.091Z,99291.69
2023-01-22T12:23:27.283Z,99291.88
2023-01-22T12:26:04.320Z,99302.22
2023-01-22T12:28:55.703Z,99307.47
2023-01-22T12:31:43.916Z,99297.28
2023-01-22T12:34:21.266Z,99311.25
2023-01-22T12:36:50.504Z,99312.25
2023-01-22T12:39:31.699Z,99313.69
2023-01-22T12:42:44.569Z,99320.00
2023-01-22T12:45:28.480Z,99322.91
2023-01-22T12:48:11.821Z,99317.00
2023-01-22T12:50:53.541Z,99323.03
2023-01-22T12:53:31.326Z,99321.44
2023-01-22T12:56:03.541Z,99320.09
2023-01-22T12:58:38.050Z,99331.94
2023-01-22T13:01:34.123Z,99325.53
2023-01-22T13:04:07.671Z,99334.59
2023-01-22T13:06:41.622Z,99332.53
2023-01-22T13:09:30.056Z,99333.69
2023-01-22T13:12:25.664Z,99339.19
2023-01-22T13:14:55.040Z,99339.09
2023-01-22T13:17:31.470Z,99347.38
2023-01-22T13:20:00.232Z,99346.53
2023-01-22T13:22:29.326Z,99352.78
2023-01-22T13:24:59.549Z,99358.25
2023-01-22T13:27:34.746Z,99360.97
2023-01-22T13:30:15.706Z,99362.44
2023-01-22T13:32:44.159Z,99374.72
2023-01-22T13:35:19.790Z,99370.59
2023-01-22T13:37:52.818Z,99368.50
2023-01-22T13:40:25.768Z,99375.50
2023-01-22T13:42:56.002Z,99380.97
2023-01-22T13:45:28.085Z,99389.53
2023-01-22T13:48:03.971Z,99381.84
2023-01-22T13:50:33.653Z,99380.78
2023-01-22T13:53:03.353Z,99374.16
2023-01-22T13:55:32.029Z,99378.66
2023-01-22T13:58:06.191Z,99383.19
2023-01-22T14:00:37.365Z,99390.94
2023-01-22T14:03:23.000Z,99393.13
2023-01-22T14:05:51.278Z,99390.06
2023-01-22T14:08:19.746Z,99395.34
2023-01-22T14:10:58.600Z,99399.09
2023-01-22T14:13:26.939Z,99399.72
2023-01-22T14:16:01.040Z,99406.25
2023-01-22T14:18:30.521Z,99405.97
2023-01-22T14:20:58.806Z,99406.16
2023-01-22T14:23:27.216Z,99406.81
2023-01-22T14:25:58.631Z,99405.47
2023-01-22T14:28:30.007Z,99407.69
2023-01-22T14:30:58.370Z,99414.94
2023-01-22T14:33:33.020Z,99415.59
2023-01-22T14:36:01.647Z,99422.59
2023-01-22T14:38:30.252Z,99422.78
2023-01-22T14:40:58.575Z,99425.44
2023-01-22T14:43:27.057Z,99424.38
2023-01-22T14:45:55.993Z,99424.56
2023-01-22T14:48:24.396Z,99429.81
2023-01-22T14:50:52.844Z,99432.28
2023-01-22T14:53:21.242Z,99432.00
2023-01-22T14:55:49.620Z,99435.25
2023-01-22T14:58:17.932Z,99429.88
2023-01-22T15:00:46.210Z,99435.59
2023-01-22T15:03:17.097Z,99436.56
2023-01-22T15:05:46.159Z,99439.47
2023-01-22T15:08:14.810Z,99441.66
2023-01-22T15:10:43.122Z,99435.97
2023-01-22T15:13:11.509Z,99438.91
2023-01-22T15:15:39.851Z,99440.34
2023-01-22T15:18:08.143Z,99440.22
2023-01-22T15:20:36.825Z,99442.09
2023-01-22T15:23:05.140Z,99445.81
2023-01-22T15:25:33.442Z,99444.41
2023-01-22T15:28:01.830Z,99450.16
2023-01-22T15:30:30.624Z,99440.75
2023-01-22T15:32:58.956Z,99443.69
2023-01-22T15:35:27.313Z,99438.31
2023-01-22T15:37:55.593Z,99437.25
2023-01-22T15:40:23.980Z,99437.41
2023-01-22T15:42:52.231Z,99435.56
2023-01-22T15:45:20.509Z,99443.59
2023-01-22T15:47:49.123Z,99447.75
2023-01-22T15:50:21.153Z,99446.22
2023-01-22T15:52:53.892Z,99444.38
2023-01-22T15:55:22.606Z,99452.72
2023-01-22T15:57:50.962Z,99450.41
2023-01-22T16:00:19.931Z,99449.34
2023-01-22T16:02:48.458Z,99449.03
2023-01-22T16:05:16.838Z,99455.50
2023-01-22T16:07:45.137Z,99450.13
2023-01-22T16:10:13.420Z,99454.91
2023-01-22T16:12:41.704Z,99453.84
2023-01-22T16:15:11.162Z,99450.41
2023-01-22T16:17:39.496Z,99450.88
2023-01-22T16:20:08.726Z,99458.13
2023-01-22T16:22:36.999Z,99451.50
2023-01-22T16:25:05.485Z,99446.09
2023-01-22T16:27:33.776Z,99452.59
2023-01-22T16:30:02.297Z,99441.66
2023-01-22T16:32:30.734Z,99441.81
2023-01-22T16:34:59.011Z,99446.28
2023-01-22T16:37:27.524Z,99436.13
2023-01-22T16:39:55.771Z,99441.81
2023-01-22T16:42:24.062Z,99439.50
2023-01-22T16:44:52.389Z,99434.09
2023-01-22T16:47:21.247Z,99436.59
2023-01-22T16:49:49.844Z,99431.97
2023-01-22T16:52:22.704Z,99433.66
2023-01-22T16:54:51.711Z,99431.81
2023-01-22T16:57:21.072Z,99439.81
2023-01-22T16:59:49.445Z,99440.00
2023-01-22T17:02:19.933Z,99436.13
2023-01-22T17:04:48.441Z,99435.81
2023-01-22T17:07:31.951Z,99440.28
2023-01-22T17:10:01.954Z,99438.41
2023-01-22T17:12:30.431Z,99436.88
2023-01-22T17:14:59.020Z,99435.34
2023-01-22T17:17:27.404Z,99427.50
2023-01-22T17:19:55.935Z,99430.72
2023-01-22T17:22:25.138Z,99435.19
2023-01-22T17:24:53.619Z,99432.13
2023-01-22T17:27:22.510Z,99430.56
2023-01-22T17:29:50.811Z,99437.34
2023-01-22T17:32:19.090Z,99435.34
2023-01-22T17:34:47.602Z,99433.03
2023-01-22T17:37:16.116Z,99435.81
2023-01-22T17:39:46.980Z,99422.72
2023-01-22T17:42:15.376Z,99425.94
2023-01-22T17:44:43.666Z,99419.63
2023-01-22T17:47:12.338Z,99422.88
2023-01-22T17:49:40.749Z,99425.34
2023-01-22T17:52:10.107Z,99418.25
2023-01-22T17:54:39.179Z,99415.91
2023-01-22T17:57:07.583Z,99415.16
2023-01-22T17:59:35.917Z,99410.53
2023-01-22T18:02:04.252Z,99406.69
2023-01-22T18:04:35.385Z,99409.13
2023-01-22T18:07:05.250Z,99415.16
2023-01-22T18:09:33.616Z,99401.75
2023-01-22T18:12:03.823Z,99409.28
2023-01-22T18:14:34.868Z,99411.72
2023-01-22T18:17:03.611Z,99415.72
2023-01-22T18:19:32.141Z,99406.34
2023-01-22T18:22:00.459Z,99415.09
2023-01-22T18:24:32.051Z,99406.19
2023-01-22T18:27:00.912Z,99395.69
2023-01-22T18:29:29.737Z,99396.91
2023-01-22T18:31:58.183Z,99397.81
2023-01-22T18:34:26.646Z,99391.22
2023-01-22T18:36:55.041Z,99398.13
2023-01-22T18:39:23.802Z,99392.28
2023-01-22T18:41:52.108Z,99389.66
2023-01-22T18:44:20.852Z,99386.59
2023-01-22T18:46:52.603Z,99381.97
2023-01-22T18:49:20.897Z,99382.88
2023-01-22T18:51:49.589Z,99384.53
2023-01-22T18:54:18.518Z,99382.22
2023-01-22T18:56:47.699Z,99377.16
2023-01-22T18:59:16.047Z,99376.53
2023-01-22T19:01:50.948Z,99367.13
2023-01-22T19:04:22.646Z,99369.59
2023-01-22T19:06:53.665Z,99368.50
2023-01-22T19:09:22.361Z,99362.66
2023-01-22T19:11:53.083Z,99367.44
2023-01-22T19:14:22.121Z,99365.88
2023-01-22T19:16:54.841Z,99356.81
2023-01-22T19:19:24.048Z,99364.34
2023-01-22T19:21:56.325Z,99359.13
2023-01-22T19:24:27.498Z,99355.13
2023-01-22T19:26:57.358Z,99354.66
2023-01-22T19:29:26.920Z,99357.28
2023-01-22T19:31:57.855Z,99357.59
2023-01-22T19:34:27.206Z,99356.38
2023-01-22T19:37:01.355Z,99351.91
2023-01-22T19:39:30.257Z,99340.84
2023-01-22T19:42:02.728Z,99340.84
2023-01-22T19:44:32.782Z,99336.53
2023-01-22T19:47:02.871Z,99340.84
2023-01-22T19:49:31.398Z,99338.53
2023-01-22T19:51:59.945Z,99327.16
2023-01-22T19:54:28.308Z,99336.69
2023-01-22T19:56:56.660Z,99323.75
2023-01-22T19:59:25.683Z,99328.22
2023-01-22T20:01:54.330Z,99323.28
2023-01-22T20:04:30.578Z,99326.97
2023-01-22T20:07:03.417Z,99324.19
2023-01-22T20:09:32.175Z,99329.44
2023-01-22T20:12:01.267Z,99325.13
2023-01-22T20:14:34.979Z,99315.41
2023-01-22T20:17:04.322Z,99316.16
2023-01-22T20:19:33.170Z,99310.78
2023-01-22T20:22:05.287Z,99311.22
2023-01-22T20:24:33.904Z,99306.63
2023-01-22T20:27:02.410Z,99309.84
2023-01-22T20:29:30.935Z,99305.22
2023-01-22T20:32:00.185Z,99308.13
2023-01-22T20:34:28.666Z,99312.59
2023-01-22T20:36:57.080Z,99313.50
2023-01-22T20:39:25.374Z,99312.72
2023-01-22T20:41:55.661Z,99309.63
2023-01-22T20:44:24.530Z,99306.09
2023-01-22T20:46:52.949Z,99310.84
2023-01-22T20:49:21.280Z,99312.97
2023-01-22T20:51:49.600Z,99308.66
2023-01-22T20:54:19.344Z,99307.56
2023-01-22T20:56:47.690Z,99312.78
2023-01-22T20:59:20.759Z,99320.00
2023-01-22T21:01:49.581Z,99309.06
2023-01-22T21:04:19.767Z,99313.97
2023-01-22T21:06:48.661Z,99310.13
2023-01-22T21:09:17.029Z,99313.00
2023-01-22T21:11:45.510Z,99305.16
2023-01-22T21:14:18.708Z,99311.59
2023-01-22T21:16:47.191Z,99311.59
2023-01-22T21:19:20.608Z,99313.28
2023-01-22T21:21:49.008Z,99314.97
2023-01-22T21:24:18.087Z,99311.13
2023-01-22T21:26:46.772Z,99310.81
2023-01-22T21:29:18.230Z,99316.00
2023-01-22T21:31:49.939Z,99315.25
2023-01-22T21:34:20.825Z,99320.47
2023-01-22T21:36:50.258Z,99325.97
2023-01-22T21:39:22.290Z,99320.13
2023-01-22T21:41:50.696Z,99320.59
2023-01-22T21:44:39.339Z,99318.59
2023-01-22T21:47:07.763Z,99327.34
2023-01-22T21:49:37.046Z,99322.25
2023-01-22T21:52:07.114Z,99321.94
2023-01-22T21:54:38.795Z,99321.16
2023-01-22T21:57:08.127Z,99333.09
2023-01-22T21:59:39.154Z,99326.81
2023-01-22T22:02:08.311Z,99332.03
2023-01-22T22:04:36.935Z,99335.25
2023-01-22T22:07:05.219Z,99340.44
2023-01-22T22:09:33.488Z,99338.13
2023-01-22T22:12:03.640Z,99341.34
2023-01-22T22:14:32.308Z,99339.81
2023-01-22T22:17:00.856Z,99341.81
2023-01-22T22:19:29.820Z,99350.09
2023-01-22T22:21:58.182Z,99349.66
2023-01-22T22:24:26.557Z,99351.19
2023-01-22T22:26:54.921Z,99362.25
2023-01-22T22:29:23.245Z,99356.72
2023-01-22T22:31:51.617Z,99363.00
2023-01-22T22:34:19.982Z,99360.69
2023-01-22T22:36:48.547Z,99366.22
2023-01-22T22:39:16.841Z,99363.91
2023-01-22T22:41:45.413Z,99361.16
2023-01-22T22:44:15.917Z,99369.13
2023-01-22T22:46:44.284Z,99375.41
2023-01-22T22:49:14.611Z,99375.88
2023-01-22T22:51:44.384Z,99381.84
2023-01-22T22:54:18.066Z,99377.53
2023-01-22T22:56:48.322Z,99392.13
2023-01-22T22:59:20.594Z,99385.06
2023-01-22T23:01:50.434Z,99390.59
2023-01-22T23:04:18.865Z,99384.75
2023-01-22T23:06:47.853Z,99397.78
2023-01-22T23:09:20.458Z,99403.31
2023-01-22T23:11:52.497Z,99405.75
2023-01-22T23:14:21.002Z,99406.19
2023-01-22T23:16:50.413Z,99405.53
2023-01-22T23:19:25.366Z,99405.97
2023-01-22T23:21:59.716Z,99414.38
2023-01-22T23:24:28.750Z,99418.06
2023-01-22T23:26:57.934Z,99421.25
2023-01-22T23:29:27.787Z,99421.72
2023-01-22T23:31:57.568Z,99432.44
2023-01-22T23:34:25.994Z,99434.09
2023-01-22T23:36:54.634Z,99433.31
2023-01-22T23:39:23.241Z,99441.28
2023-01-22T23:41:51.686Z,99442.19
2023-01-22T23:44:20.031Z,99442.19
2023-01-22T23:46:48.544Z,99447.38
2023-01-22T23:49:16.855Z,99447.81
2023-01-22T23:51:46.084Z,99453.31
2023-01-22T23:54:14.622Z,99462.81
2023-01-22T23:56:42.961Z,99461.28
2023-01-22T23:59:12.405Z,99466.81
